Time;durP1;ratioP1;P1;durP2;ratioP2;P2;SDS_P1;SDS_P2;PMS_P1;PMS_P2;Temp;Humidity;BMP_temperature;BMP_pressure;BME280_temperature;BME280_humidity;BME280_pressure;Samples;Min_cycle;Max_cycle;Signal;HPM_P1;HPM_P2
2021/11/03 00:00:22;;;;;;;;;14.75;12.50;;;;;11.53;69.38;99527.22;5004487;28;45362;-61
2021/11/03 00:02:48;;;;;;;;;14.00;9.75;;;;;11.51;69.16;99528.31;5004034;28;45447;-63
2021/11/03 00:05:16;;;;;;;;;13.50;10.75;;;;;11.51;69.41;99515.13;5004004;28;45443;-62
2021/11/03 00:07:43;;;;;;;;;23.50;18.25;;;;;11.50;70.00;99511.66;5005686;28;47219;-65
2021/11/03 00:10:13;;;;;;;;;33.50;26.50;;;;;11.54;69.86;99513.09;5000423;28;45480;-64
2021/11/03 00:12:39;;;;;;;;;24.25;18.25;;;;;11.54;69.45;99512.25;5005375;28;45454;-62
2021/11/03 00:15:06;;;;;;;;;43.25;33.00;;;;;11.53;69.66;99507.91;5009203;28;45586;-63
2021/11/03 00:17:32;;;;;;;;;35.50;30.25;;;;;11.53;70.23;99498.19;5007155;28;45438;-61
2021/11/03 00:19:58;;;;;;;;;45.50;33.25;;;;;11.57;69.79;99507.56;4989825;28;45231;-62
2021/11/03 00:22:23;;;;;;;;;42.50;31.00;;;;;11.60;70.03;99511.72;5000859;28;45329;-61
2021/11/03 00:24:49;;;;;;;;;32.50;28.25;;;;;11.60;69.96;99498.53;5002129;28;45527;-62
2021/11/03 00:27:14;;;;;;;;;31.00;26.50;;;;;11.60;69.94;99502.00;5000997;28;46171;-63
2021/11/03 00:29:40;;;;;;;;;19.00;15.75;;;;;11.60;69.56;99498.53;5000100;28;45491;-64
2021/11/03 00:32:07;;;;;;;;;21.50;17.00;;;;;11.61;70.28;99498.44;5001570;28;45363;-63
2021/11/03 00:34:32;;;;;;;;;8.75;4.00;;;;;11.60;70.13;99483.53;5004162;28;45549;-64
2021/11/03 00:36:58;;;;;;;;;9.25;9.00;;;;;11.61;70.03;99482.59;5009906;28;45998;-65
2021/11/03 00:39:25;;;;;;;;;10.25;8.00;;;;;11.61;69.86;99485.25;5010839;28;45477;-66
2021/11/03 00:41:51;;;;;;;;;8.75;8.00;;;;;11.60;70.04;99478.28;5008654;28;45532;-63
2021/11/03 00:44:16;;;;;;;;;35.00;31.75;;;;;11.62;69.87;99480.81;5009572;28;45409;-64
2021/11/03 00:46:42;;;;;;;;;8.25;8.00;;;;;11.62;69.96;99478.16;5004294;28;46096;-64
2021/11/03 00:49:07;;;;;;;;;9.50;7.00;;;;;11.60;69.92;99475.63;5001962;28;45401;-64
2021/11/03 00:51:33;;;;;;;;;12.25;9.25;;;;;11.59;70.33;99473.97;5001941;28;45272;-65
2021/11/03 00:53:59;;;;;;;;;7.00;7.00;;;;;11.58;69.83;99479.38;5001819;28;45531;-65
2021/11/03 00:56:25;;;;;;;;;9.25;8.50;;;;;11.56;70.05;99466.31;5001591;28;45659;-64
2021/11/03 00:58:50;;;;;;;;;8.00;8.00;;;;;11.56;70.24;99471.59;4997493;28;45367;-65
2021/11/03 01:01:16;;;;;;;;;8.75;8.75;;;;;11.57;70.32;99478.53;5001957;28;45231;-64
2021/11/03 01:03:42;;;;;;;;;7.00;7.00;;;;;11.55;70.21;99469.94;5001841;28;45387;-64
2021/11/03 01:06:07;;;;;;;;;9.00;7.25;;;;;11.52;70.16;99480.72;5001533;28;45325;-64
2021/11/03 01:08:33;;;;;;;;;8.25;6.25;;;;;11.48;70.01;99473.19;5001585;28;45436;-63
2021/11/03 01:10:58;;;;;;;;;9.50;8.00;;;;;11.49;70.64;99477.50;5001576;28;45309;-63
2021/11/03 01:13:25;;;;;;;;;11.00;9.00;;;;;11.47;70.29;99475.00;5001876;28;45576;-66
2021/11/03 01:15:52;;;;;;;;;9.25;6.50;;;;;11.44;70.25;99468.16;5001327;28;45215;-64
2021/11/03 01:18:17;;;;;;;;;8.50;7.50;;;;;11.43;70.32;99466.50;5001557;28;45387;-63
2021/11/03 01:20:45;;;;;;;;;10.25;10.00;;;;;11.36;70.68;99467.97;5000168;28;45281;-64
2021/11/03 01:23:12;;;;;;;;;8.00;8.00;;;;;11.35;70.79;99476.00;5001367;28;45554;-64
2021/11/03 01:25:38;;;;;;;;;11.50;7.25;;;;;11.35;71.14;99479.47;5001218;28;45473;-64
2021/11/03 01:28:04;;;;;;;;;9.00;7.75;;;;;11.34;70.78;99480.44;5001317;28;45313;-65
2021/11/03 01:30:29;;;;;;;;;10.50;8.00;;;;;11.29;70.93;99479.13;5000896;28;45267;-65
2021/11/03 01:32:57;;;;;;;;;12.00;9.00;;;;;11.28;70.93;99480.94;5001472;28;45422;-64
2021/11/03 01:35:23;;;;;;;;;8.75;8.00;;;;;11.27;70.98;99484.53;5000971;28;46305;-65
2021/11/03 01:37:50;;;;;;;;;10.00;7.00;;;;;11.23;71.03;99484.94;5001250;28;45266;-64
2021/11/03 01:40:20;;;;;;;;;5.00;4.25;;;;;11.25;71.20;99491.75;4991857;28;45384;-65
2021/11/03 01:42:47;;;;;;;;;10.25;8.00;;;;;11.24;71.25;99490.06;5001324;28;45222;-64
2021/11/03 01:45:16;;;;;;;;;9.50;6.00;;;;;11.26;71.10;99496.06;5000706;28;47437;-65
2021/11/03 01:47:45;;;;;;;;;11.00;7.75;;;;;11.27;71.47;99491.63;5001137;28;45325;-65
2021/11/03 01:50:18;;;;;;;;;8.75;7.75;;;;;11.27;71.65;99492.44;5001286;28;45462;-65
2021/11/03 01:52:47;;;;;;;;;7.75;4.75;;;;;11.28;71.80;99496.75;5001106;28;45361;-65
2021/11/03 01:55:14;;;;;;;;;5.00;5.00;;;;;11.26;71.65;99490.78;5001087;28;45365;-65
2021/11/03 01:57:43;;;;;;;;;8.00;8.00;;;;;11.24;71.43;99489.25;5000810;28;45392;-64
2021/11/03 02:00:14;;;;;;;;;7.25;5.50;;;;;11.21;71.48;99492.94;5000680;28;45251;-65
2021/11/03 02:02:42;;;;;;;;;10.75;7.25;;;;;11.19;71.87;99487.81;5000915;28;45331;-64
2021/11/03 02:05:10;;;;;;;;;7.25;7.25;;;;;11.16;71.24;99477.53;5000808;28;45411;-64
2021/11/03 02:07:38;;;;;;;;;9.00;8.75;;;;;11.13;71.96;99490.94;5000915;28;45396;-64
2021/11/03 02:10:04;;;;;;;;;8.00;6.25;;;;;11.14;71.67;99492.63;5000793;28;45336;-65
2021/11/03 02:12:30;;;;;;;;;9.00;8.00;;;;;11.16;72.12;99485.44;5000940;28;45261;-64
2021/11/03 02:14:57;;;;;;;;;8.00;7.00;;;;;11.16;72.02;99482.78;5000303;28;45318;-65
2021/11/03 02:17:24;;;;;;;;;8.00;8.00;;;;;11.17;71.93;99486.28;5000648;28;45347;-65
2021/11/03 02:19:56;;;;;;;;;11.00;8.25;;;;;11.15;71.92;99485.56;5000566;28;45278;-65
2021/11/03 02:22:38;;;;;;;;;7.50;7.00;;;;;11.16;72.15;99493.34;5000548;28;45458;-65
2021/11/03 02:25:14;;;;;;;;;9.25;8.00;;;;;11.14;72.26;99487.38;5000563;28;45363;-65
2021/11/03 02:27:43;;;;;;;;;9.50;8.25;;;;;11.09;71.57;99491.31;5000619;28;45356;-65
2021/11/03 02:30:12;;;;;;;;;6.25;6.00;;;;;11.06;71.89;99483.66;5000386;28;45367;-65
2021/11/03 02:32:41;;;;;;;;;11.50;10.50;;;;;11.02;71.94;99482.25;5001767;28;45170;-65
2021/11/03 02:35:07;;;;;;;;;10.25;7.25;;;;;11.03;72.36;99481.28;5003869;28;46171;-65
2021/11/03 02:37:40;;;;;;;;;12.75;10.00;;;;;10.99;71.90;99483.34;5003903;28;45337;-64
2021/11/03 02:40:16;;;;;;;;;9.00;7.75;;;;;10.97;71.88;99479.13;5004037;28;45397;-64
2021/11/03 02:42:46;;;;;;;;;12.00;11.25;;;;;10.94;72.16;99480.22;5004184;28;45377;-64
2021/11/03 02:45:40;;;;;;;;;9.75;8.25;;;;;10.93;71.95;99489.09;5003310;28;45346;-64
2021/11/03 02:48:06;;;;;;;;;11.25;9.00;;;;;10.88;72.61;99484.19;5003842;28;45353;-64
2021/11/03 02:50:32;;;;;;;;;15.25;11.00;;;;;10.87;72.45;99489.59;5004002;28;45464;-64
2021/11/03 02:52:57;;;;;;;;;12.75;9.00;;;;;10.85;72.64;99487.06;5003711;28;45314;-65
2021/11/03 02:55:23;;;;;;;;;9.00;9.00;;;;;10.84;72.65;99489.84;5003701;28;45184;-64
2021/11/03 02:57:48;;;;;;;;;13.75;8.50;;;;;10.83;72.02;99493.44;5003570;28;45516;-65
2021/11/03 03:00:17;;;;;;;;;12.00;10.00;;;;;10.83;72.91;99490.81;5003709;28;45936;-65
2021/11/03 03:02:43;;;;;;;;;11.00;8.25;;;;;10.85;72.46;99494.16;5003657;28;45246;-64
2021/11/03 03:05:09;;;;;;;;;9.00;9.00;;;;;10.85;72.64;99496.78;5003576;28;46008;-65
2021/11/03 03:07:35;;;;;;;;;11.25;10.00;;;;;10.87;72.47;99503.59;5003402;28;45317;-64
2021/11/03 03:10:01;;;;;;;;;14.50;8.50;;;;;10.89;72.62;99498.19;5003643;28;45242;-65
2021/11/03 03:12:30;;;;;;;;;10.25;9.00;;;;;10.88;72.26;99496.53;5003539;28;45517;-65
2021/11/03 03:14:56;;;;;;;;;8.50;7.00;;;;;10.87;72.46;99495.69;5003161;28;46185;-65
2021/11/03 03:17:22;;;;;;;;;15.25;9.25;;;;;10.80;71.94;99499.78;5003165;28;45332;-64
2021/11/03 03:19:48;;;;;;;;;13.25;10.00;;;;;10.78;71.89;99501.69;5003365;28;45575;-65
2021/11/03 03:22:16;;;;;;;;;9.25;9.00;;;;;10.78;72.87;99508.75;5003381;28;45309;-65
2021/11/03 03:24:42;;;;;;;;;10.75;8.75;;;;;10.77;72.66;99501.81;5003073;28;45357;-65
2021/11/03 03:27:07;;;;;;;;;17.75;11.25;;;;;10.75;72.75;99503.75;5003075;28;45253;-64
2021/11/03 03:29:34;;;;;;;;;10.25;8.75;;;;;10.72;72.25;99501.34;5002848;28;45266;-64
2021/11/03 03:31:59;;;;;;;;;13.50;10.25;;;;;10.73;72.25;99508.28;5003070;28;45606;-65
2021/11/03 03:34:27;;;;;;;;;8.75;8.00;;;;;10.73;72.49;99505.66;5003018;28;46243;-65
2021/11/03 03:36:54;;;;;;;;;10.00;9.50;;;;;10.70;72.43;99514.63;5002976;28;45313;-65
2021/11/03 03:39:23;;;;;;;;;9.75;7.00;;;;;10.68;72.72;99511.28;5003226;28;45223;-65
2021/11/03 03:41:57;;;;;;;;;14.00;9.50;;;;;10.67;72.36;99522.78;5003234;28;45491;-64
2021/11/03 03:44:23;;;;;;;;;10.75;9.75;;;;;10.68;72.66;99527.09;5001540;28;45280;-64
2021/11/03 03:46:48;;;;;;;;;11.75;11.25;;;;;10.68;72.66;99519.19;5002893;28;45222;-64
2021/11/03 03:49:14;;;;;;;;;8.00;8.00;;;;;10.67;72.53;99525.44;5002954;28;45315;-64
2021/11/03 03:51:39;;;;;;;;;12.50;10.00;;;;;10.67;72.64;99524.59;5002851;28;45265;-64
2021/11/03 03:54:05;;;;;;;;;9.75;9.00;;;;;10.66;72.69;99521.09;5002548;28;46158;-64
2021/11/03 03:56:31;;;;;;;;;11.25;10.00;;;;;10.63;72.28;99522.19;5002716;28;45491;-64
2021/11/03 03:58:56;;;;;;;;;14.25;10.25;;;;;10.63;72.77;99523.97;5002512;28;45329;-64
2021/11/03 04:01:24;;;;;;;;;9.25;9.00;;;;;10.61;72.56;99532.00;5002623;28;45320;-64
2021/11/03 04:03:50;;;;;;;;;13.50;11.00;;;;;10.62;72.56;99540.75;5002498;28;45150;-64
2021/11/03 04:06:16;;;;;;;;;13.25;11.50;;;;;10.61;72.34;99542.53;5002491;28;45553;-64
2021/11/03 04:08:41;;;;;;;;;17.50;12.25;;;;;10.65;72.67;99539.66;5002551;28;45297;-64
2021/11/03 04:11:07;;;;;;;;;16.25;13.50;;;;;10.67;72.45;99543.88;5002403;28;45548;-64
2021/11/03 04:13:34;;;;;;;;;17.75;12.25;;;;;10.62;72.50;99544.22;5002170;28;46062;-64
2021/11/03 04:16:00;;;;;;;;;13.75;11.25;;;;;10.60;72.68;99543.50;5002389;28;45495;-64
2021/11/03 04:18:26;;;;;;;;;13.50;11.50;;;;;10.62;72.86;99546.84;5002431;28;45499;-64
2021/11/03 04:20:52;;;;;;;;;14.50;12.50;;;;;10.60;72.88;99551.41;5002404;28;45396;-64
2021/11/03 04:23:19;;;;;;;;;14.25;12.25;;;;;10.59;72.26;99547.09;5002157;28;45521;-64
2021/11/03 04:25:46;;;;;;;;;18.00;17.25;;;;;10.53;72.50;99546.72;5001775;28;45304;-63
2021/11/03 04:28:12;;;;;;;;;15.50;10.50;;;;;10.52;72.77;99548.53;5002398;28;45345;-64
2021/11/03 04:30:39;;;;;;;;;19.75;14.00;;;;;10.51;72.41;99552.13;5001823;28;45289;-64
2021/11/03 04:33:06;;;;;;;;;18.00;16.25;;;;;10.48;72.78;99560.25;5002234;28;45486;-64
2021/11/03 04:35:32;;;;;;;;;22.25;17.00;;;;;10.47;73.07;99561.22;5002086;28;45353;-64
2021/11/03 04:37:58;;;;;;;;;25.00;17.25;;;;;10.42;72.58;99555.44;5002291;28;45515;-64
2021/11/03 04:40:25;;;;;;;;;20.00;16.75;;;;;10.44;73.33;99568.53;5002286;28;45233;-64
2021/11/03 04:42:51;;;;;;;;;23.25;21.25;;;;;10.46;72.98;99561.34;5002050;28;45288;-64
2021/11/03 04:45:19;;;;;;;;;19.50;16.50;;;;;10.45;73.00;99559.66;5001628;28;45423;-65
2021/11/03 04:47:45;;;;;;;;;20.75;18.00;;;;;10.44;72.53;99564.09;5002020;28;45369;-65
2021/11/03 04:50:18;;;;;;;;;24.75;18.75;;;;;10.45;73.26;99562.28;5002011;28;46476;-65
2021/11/03 04:52:44;;;;;;;;;19.50;17.75;;;;;10.43;72.93;99569.47;5001580;28;45482;-65
2021/11/03 04:55:09;;;;;;;;;19.75;19.25;;;;;10.42;73.13;99565.16;5001562;28;45282;-64
2021/11/03 04:57:35;;;;;;;;;21.50;19.50;;;;;10.42;73.33;99565.16;5002135;28;45373;-65
2021/11/03 05:00:05;;;;;;;;;25.75;22.00;;;;;10.39;73.11;99566.22;5001716;28;45370;-64
2021/11/03 05:02:31;;;;;;;;;21.75;19.25;;;;;10.36;73.04;99568.28;5001573;28;45321;-64
2021/11/03 05:04:57;;;;;;;;;25.00;22.75;;;;;10.37;72.87;99568.16;5001756;28;45421;-64
2021/11/03 05:07:23;;;;;;;;;26.50;22.75;;;;;10.39;72.94;99575.91;5001829;28;45239;-64
2021/11/03 05:09:48;;;;;;;;;24.00;23.50;;;;;10.37;73.15;99573.41;5001692;28;45309;-64
2021/11/03 05:12:14;;;;;;;;;26.75;20.50;;;;;10.38;73.07;99577.72;5001491;28;45884;-66
2021/11/03 05:14:39;;;;;;;;;26.25;20.75;;;;;10.41;73.39;99574.84;5001302;28;45317;-66
2021/11/03 05:17:05;;;;;;;;;27.75;21.50;;;;;10.40;73.40;99570.53;5001712;28;45309;-66
2021/11/03 05:19:32;;;;;;;;;23.50;20.50;;;;;10.42;73.55;99583.56;5001436;28;45289;-66
2021/11/03 05:22:00;;;;;;;;;28.50;22.50;;;;;10.41;73.50;99580.09;5001216;28;46144;-66
2021/11/03 05:24:26;;;;;;;;;25.75;19.00;;;;;10.39;72.82;99581.19;4979226;28;45281;-66
2021/11/03 05:26:53;;;;;;;;;28.50;19.50;;;;;10.39;73.03;99587.28;5001597;28;45279;-66
2021/11/03 05:29:20;;;;;;;;;23.25;18.75;;;;;10.42;73.59;99578.31;5001082;28;45570;-66
2021/11/03 05:31:45;;;;;;;;;26.25;21.25;;;;;10.44;73.41;99577.25;5001226;28;46115;-66
2021/11/03 05:34:11;;;;;;;;;26.75;24.50;;;;;10.47;73.64;99581.44;5001288;28;45325;-66
2021/11/03 05:36:37;;;;;;;;;19.00;15.00;;;;;10.50;73.62;99579.38;5001385;28;45356;-66
2021/11/03 05:39:11;;;;;;;;;23.50;20.75;;;;;10.51;73.14;99581.09;5001427;28;45496;-65
2021/11/03 05:41:40;;;;;;;;;20.50;19.50;;;;;10.49;72.77;99585.63;5000897;28;46308;-66
2021/11/03 05:44:12;;;;;;;;;19.25;15.50;;;;;10.48;72.87;99581.31;5000839;28;45293;-65
2021/11/03 05:46:44;;;;;;;;;22.00;20.00;;;;;10.47;73.06;99589.34;5001133;28;45434;-66
2021/11/03 05:49:13;;;;;;;;;23.50;20.75;;;;;10.45;73.34;99584.19;5001376;28;45461;-66
2021/11/03 05:51:40;;;;;;;;;23.25;19.25;;;;;10.48;72.86;99591.84;5000662;28;46349;-66
2021/11/03 05:54:06;;;;;;;;;24.25;20.25;;;;;10.50;73.37;99584.66;5000881;28;45408;-66
2021/11/03 05:56:32;;;;;;;;;24.00;20.00;;;;;10.51;73.44;99585.53;5000934;28;45492;-66
2021/11/03 05:58:59;;;;;;;;;25.50;20.75;;;;;10.50;73.10;99579.38;5000946;28;45426;-66
2021/11/03 06:01:26;;;;;;;;;25.25;20.00;;;;;10.52;73.42;99593.28;5000706;28;45310;-66
2021/11/03 06:03:55;;;;;;;;;27.50;20.00;;;;;10.55;73.55;99597.47;5000907;28;45332;-66
2021/11/03 06:06:22;;;;;;;;;26.00;18.00;;;;;10.56;73.72;99605.25;5000815;28;45543;-66
2021/11/03 06:08:51;;;;;;;;;30.25;23.00;;;;;10.57;73.93;99600.81;5003942;28;45252;-66
2021/11/03 06:11:19;;;;;;;;;21.50;19.50;;;;;10.56;73.45;99597.34;5004166;28;45363;-66
2021/11/03 06:13:45;;;;;;;;;19.00;18.50;;;;;10.55;73.28;99597.47;5003920;28;45238;-66
2021/11/03 06:16:11;;;;;;;;;22.25;19.50;;;;;10.52;73.28;99597.72;5004522;28;45325;-66
2021/11/03 06:18:37;;;;;;;;;29.25;23.25;;;;;10.50;73.57;99605.72;5004154;28;45217;-66
2021/11/03 06:21:03;;;;;;;;;28.75;22.00;;;;;10.49;73.94;99603.22;4986393;28;47278;-66
2021/11/03 06:23:29;;;;;;;;;30.25;20.25;;;;;10.49;73.96;99611.94;5004196;28;45479;-66
2021/11/03 06:25:54;;;;;;;;;30.00;23.25;;;;;10.51;73.91;99607.41;5004220;28;45331;-66
2021/11/03 06:28:20;;;;;;;;;20.75;20.25;;;;;10.52;73.94;99608.25;5003987;28;45474;-66
2021/11/03 06:30:46;;;;;;;;;32.25;25.25;;;;;10.52;73.56;99609.09;5003484;28;45313;-66
2021/11/03 06:33:12;;;;;;;;;28.25;25.25;;;;;10.52;73.67;99616.16;5004007;28;45501;-66
2021/11/03 06:35:38;;;;;;;;;22.25;20.50;;;;;10.53;73.81;99625.72;5004016;28;45380;-66
2021/11/03 06:38:05;;;;;;;;;28.00;22.50;;;;;10.57;74.10;99632.41;5004149;28;45398;-66
2021/11/03 06:40:31;;;;;;;;;22.25;20.75;;;;;10.57;73.59;99625.34;5003467;28;45248;-66
2021/11/03 06:42:57;;;;;;;;;22.75;19.00;;;;;10.58;73.88;99634.09;5003885;28;45495;-67
2021/11/03 06:45:24;;;;;;;;;25.00;21.25;;;;;10.60;73.36;99634.84;5003225;28;45417;-67
2021/11/03 06:47:50;;;;;;;;;22.25;18.50;;;;;10.60;73.01;99632.19;5003938;28;45336;-67
2021/11/03 06:50:21;;;;;;;;;26.50;21.00;;;;;10.59;73.19;99636.63;4985846;28;45624;-67
2021/11/03 06:52:48;;;;;;;;;20.00;19.00;;;;;10.63;73.49;99634.59;5003489;28;45195;-66
2021/11/03 06:55:15;;;;;;;;;24.75;21.50;;;;;10.63;73.18;99639.84;5003663;28;45364;-66
2021/11/03 06:57:40;;;;;;;;;26.50;23.25;;;;;10.61;73.60;99642.63;5004092;28;45455;-66
2021/11/03 07:00:12;;;;;;;;;23.00;21.50;;;;;10.62;73.34;99654.81;5003524;28;45249;-68
2021/11/03 07:02:37;;;;;;;;;24.00;19.75;;;;;10.65;73.59;99658.16;4998492;28;45520;-66
2021/11/03 07:05:03;;;;;;;;;25.25;22.50;;;;;10.64;73.27;99662.59;5002808;28;45422;-66
2021/11/03 07:07:29;;;;;;;;;22.00;19.50;;;;;10.62;73.33;99669.78;5004069;28;45346;-66
2021/11/03 07:09:54;;;;;;;;;22.25;16.75;;;;;10.61;72.92;99676.00;5003139;28;45552;-67
2021/11/03 07:12:20;;;;;;;;;19.75;19.00;;;;;10.60;73.20;99675.16;4998389;28;45389;-66
2021/11/03 07:14:45;;;;;;;;;27.75;19.50;;;;;10.61;73.26;99682.13;5003175;28;45372;-67
2021/11/03 07:17:12;;;;;;;;;19.00;13.75;;;;;10.59;73.16;99685.81;5002783;28;45380;-66
2021/11/03 07:19:39;;;;;;;;;16.25;14.50;;;;;10.53;73.02;99687.13;4999111;28;46277;-66
2021/11/03 07:22:06;;;;;;;;;17.75;16.25;;;;;10.53;73.17;99687.13;5003035;28;45515;-68
2021/11/03 07:24:31;;;;;;;;;25.00;19.25;;;;;10.50;73.14;99692.59;4998884;28;45238;-67
2021/11/03 07:26:57;;;;;;;;;22.25;19.75;;;;;10.48;72.76;99696.31;5002967;28;45187;-68
2021/11/03 07:29:22;;;;;;;;;13.75;9.75;;;;;10.45;72.46;99702.66;5002223;28;46526;-67
2021/11/03 07:31:48;;;;;;;;;19.50;15.25;;;;;10.40;73.03;99706.59;5003113;28;45309;-67
2021/11/03 07:34:14;;;;;;;;;25.00;18.25;;;;;10.36;72.77;99710.41;5002922;28;45389;-65
2021/11/03 07:36:40;;;;;;;;;18.75;16.50;;;;;10.33;73.19;99712.31;4999518;28;45341;-66
2021/11/03 07:39:05;;;;;;;;;16.75;14.75;;;;;10.32;72.68;99718.53;5003056;28;45498;-67
2021/11/03 07:41:31;;;;;;;;;19.75;15.25;;;;;10.30;72.63;99722.25;5006901;28;45422;-67
2021/11/03 07:43:57;;;;;;;;;23.00;17.25;;;;;10.27;72.85;99725.09;5001236;28;45416;-62
2021/11/03 07:46:23;;;;;;;;;18.00;14.75;;;;;10.29;73.09;99731.09;5010553;28;45481;-64
2021/11/03 07:48:48;;;;;;;;;20.25;16.75;;;;;10.28;73.08;99732.03;5009107;28;45639;-66
2021/11/03 07:51:16;;;;;;;;;26.75;22.00;;;;;10.28;72.60;99737.31;5009834;28;45464;-66
2021/11/03 07:53:45;;;;;;;;;22.50;17.50;;;;;10.23;72.77;99735.00;4990480;28;45481;-66
2021/11/03 07:56:14;;;;;;;;;25.25;19.00;;;;;10.21;73.14;99733.41;5009146;28;45429;-68
2021/11/03 07:58:40;;;;;;;;;18.50;16.75;;;;;10.20;72.86;99745.75;5008927;28;45338;-61
2021/11/03 08:01:08;;;;;;;;;17.00;17.00;;;;;10.20;72.40;99745.75;5009183;28;45384;-65
2021/11/03 08:03:34;;;;;;;;;16.50;15.00;;;;;10.20;72.64;99753.63;5010915;28;45339;-65
2021/11/03 08:06:00;;;;;;;;;20.00;18.25;;;;;10.19;72.20;99751.97;5008461;28;45406;-64
2021/11/03 08:08:27;;;;;;;;;25.25;20.00;;;;;10.19;72.26;99754.59;5012969;28;46018;-65
2021/11/03 08:10:54;;;;;;;;;22.75;19.50;;;;;10.21;72.62;99759.72;4991844;28;46493;-65
2021/11/03 08:13:27;;;;;;;;;23.00;19.00;;;;;10.20;72.02;99756.25;5010293;28;45471;-64
2021/11/03 08:15:54;;;;;;;;;20.50;18.50;;;;;10.22;72.39;99758.78;5006057;28;45433;-64
2021/11/03 08:18:24;;;;;;;;;27.25;20.00;;;;;10.26;72.09;99770.78;5011371;28;45249;-64
2021/11/03 08:20:50;;;;;;;;;24.50;19.00;;;;;10.33;71.87;99770.22;5002002;28;45259;-64
2021/11/03 08:23:16;;;;;;;;;23.75;16.25;;;;;10.43;71.92;99775.66;4999707;28;45424;-63
2021/11/03 08:25:42;;;;;;;;;20.25;16.25;;;;;10.49;72.10;99774.34;5006126;28;45318;-64
2021/11/03 08:28:08;;;;;;;;;21.75;19.00;;;;;10.53;72.21;99783.72;5007143;28;45979;-64
2021/11/03 08:30:34;;;;;;;;;25.00;19.00;;;;;10.56;71.47;99784.31;5005142;28;46566;-64
2021/11/03 08:33:09;;;;;;;;;22.00;19.00;;;;;10.56;71.41;99788.75;5004017;28;45420;-64
2021/11/03 08:35:40;;;;;;;;;18.75;15.00;;;;;10.56;71.47;99796.63;5003615;28;45237;-63
2021/11/03 08:38:08;;;;;;;;;20.75;19.50;;;;;10.57;71.65;99800.94;5005110;28;45321;-64
2021/11/03 08:40:35;;;;;;;;;20.00;15.75;;;;;10.60;71.40;99800.75;5002812;28;45421;-64
2021/11/03 08:43:04;;;;;;;;;18.75;16.50;;;;;10.61;70.89;99810.31;5001557;28;45476;-64
2021/11/03 08:45:30;;;;;;;;;18.25;13.75;;;;;10.60;70.73;99813.91;4980393;28;45334;-64
2021/11/03 08:47:56;;;;;;;;;14.25;13.50;;;;;10.61;70.47;99803.25;5000587;28;46113;-64
2021/11/03 08:50:26;;;;;;;;;23.50;18.00;;;;;10.67;70.90;99806.41;5004914;28;45424;-62
2021/11/03 08:52:52;;;;;;;;;22.50;18.25;;;;;10.71;70.96;99802.56;5009153;28;45492;-61
2021/11/03 08:55:19;;;;;;;;;26.00;21.50;;;;;10.76;71.18;99803.91;5007668;28;45377;-63
2021/11/03 08:57:45;;;;;;;;;18.75;17.00;;;;;10.84;70.57;99805.97;5003100;28;45397;-64
2021/11/03 09:00:23;;;;;;;;;25.25;19.75;;;;;10.88;70.59;99810.03;5005587;28;45415;-62
2021/11/03 09:02:58;;;;;;;;;28.25;19.00;;;;;10.94;70.38;99803.47;5002519;28;45310;-62
2021/11/03 09:05:27;;;;;;;;;20.75;17.25;;;;;10.94;70.66;99811.38;5001498;28;45246;-62
2021/11/03 09:07:53;;;;;;;;;22.00;16.25;;;;;10.89;70.55;99812.56;5002596;28;46196;-62
2021/11/03 09:10:22;;;;;;;;;25.25;20.00;;;;;10.93;70.86;99817.59;5001178;28;45346;-62
2021/11/03 09:12:49;;;;;;;;;26.50;21.50;;;;;10.98;70.80;99818.94;4992860;28;45428;-62
2021/11/03 09:15:16;;;;;;;;;14.75;14.00;;;;;11.02;70.10;99820.38;5001133;28;45356;-62
2021/11/03 09:17:42;;;;;;;;;23.25;15.50;;;;;11.05;69.80;99821.94;5000893;28;45274;-64
2021/11/03 09:20:10;;;;;;;;;19.50;15.75;;;;;11.09;69.59;99833.94;4994750;28;45310;-61
2021/11/03 09:22:40;;;;;;;;;16.50;15.00;;;;;11.11;69.02;99834.66;5000926;28;45337;-61
2021/11/03 09:25:08;;;;;;;;;20.00;14.00;;;;;11.14;69.65;99834.44;4973918;28;45234;-60
2021/11/03 09:27:35;;;;;;;;;18.00;18.00;;;;;11.09;69.31;99842.69;5000840;28;46410;-64
2021/11/03 09:30:01;;;;;;;;;25.50;21.75;;;;;11.05;69.62;99837.75;5006000;28;45519;-67
2021/11/03 09:32:29;;;;;;;;;22.50;18.50;;;;;11.00;70.26;99846.03;5001263;28;45400;-66
2021/11/03 09:34:54;;;;;;;;;19.25;16.75;;;;;10.98;69.60;99849.69;4983321;28;45523;-67
2021/11/03 09:37:23;;;;;;;;;21.00;19.50;;;;;10.99;69.70;99852.25;5000575;28;46051;-65
2021/11/03 09:39:51;;;;;;;;;20.75;17.50;;;;;11.06;70.18;99850.84;4983019;28;45424;-65
2021/11/03 09:42:18;;;;;;;;;21.00;19.50;;;;;11.13;69.99;99859.09;4999936;28;45277;-67
2021/11/03 09:44:46;;;;;;;;;20.25;18.00;;;;;11.15;70.00;99859.84;5000839;28;45259;-69
2021/11/03 09:47:20;;;;;;;;;20.25;19.25;;;;;11.15;69.56;99863.31;5000343;28;45959;-68
2021/11/03 09:49:52;;;;;;;;;28.50;20.50;;;;;11.21;70.16;99871.69;5001159;28;45464;-66
2021/11/03 09:52:24;;;;;;;;;16.50;15.00;;;;;11.31;69.50;99867.44;5004222;28;45337;-61
2021/11/03 09:54:57;;;;;;;;;19.50;16.75;;;;;11.41;69.14;99871.03;4999274;28;45472;-60
2021/11/03 09:57:31;;;;;;;;;18.25;15.75;;;;;11.44;68.93;99862.88;5002666;28;45461;-59
2021/11/03 10:00:19;;;;;;;;;15.75;14.75;;;;;11.49;68.69;99866.00;5003430;28;46335;-61
2021/11/03 10:03:13;;;;;;;;;21.75;17.00;;;;;11.52;69.14;99878.09;4998973;28;45492;-64
2021/11/03 10:06:06;;;;;;;;;25.00;20.25;;;;;11.50;68.98;99872.97;4991719;28;45528;-63
2021/11/03 10:08:37;;;;;;;;;19.75;18.00;;;;;11.47;68.79;99875.84;4985893;28;46377;-62
2021/11/03 10:11:23;;;;;;;;;15.25;13.25;;;;;11.43;68.73;99877.00;4990995;28;45434;-63
2021/11/03 10:13:50;;;;;;;;;17.25;17.25;;;;;11.45;68.95;99883.88;4986357;28;45341;-62
2021/11/03 10:16:16;;;;;;;;;21.50;19.50;;;;;11.52;68.74;99875.47;5000821;28;45424;-59
2021/11/03 10:18:54;;;;;;;;;16.75;15.25;;;;;11.63;68.83;99881.63;4999008;28;45342;-61
2021/11/03 10:21:25;;;;;;;;;23.25;21.25;;;;;11.68;68.28;99871.53;4982420;28;45362;-62
2021/11/03 10:24:22;;;;;;;;;15.00;11.75;;;;;11.69;68.12;99873.22;5000377;28;45254;-62
2021/11/03 10:26:59;;;;;;;;;14.25;12.00;;;;;11.66;68.07;99878.72;5000212;28;45487;-61
2021/11/03 10:29:36;;;;;;;;;19.00;13.50;;;;;11.61;67.81;99880.91;4999690;28;46274;-61
2021/11/03 10:32:08;;;;;;;;;16.00;15.25;;;;;11.60;68.23;99881.84;4999972;28;45405;-62
2021/11/03 10:34:33;;;;;;;;;22.75;21.00;;;;;11.62;67.89;99887.00;5000262;28;45262;-62
2021/11/03 10:37:05;;;;;;;;;15.75;14.00;;;;;11.67;68.24;99887.47;4982459;28;45696;-62
2021/11/03 10:39:49;;;;;;;;;17.75;14.00;;;;;11.68;67.61;99886.50;5000122;28;46294;-62
2021/11/03 10:42:45;;;;;;;;;13.75;13.00;;;;;11.71;67.45;99894.22;4993226;28;45258;-62
2021/11/03 10:45:19;;;;;;;;;14.50;11.75;;;;;11.75;67.86;99891.19;4929394;28;45446;-62
2021/11/03 10:48:06;;;;;;;;;16.00;14.00;;;;;11.81;67.50;99895.19;5000236;28;45170;-61
2021/11/03 10:50:40;;;;;;;;;14.25;11.25;;;;;11.88;67.44;99899.03;4999642;28;45421;-60
2021/11/03 10:53:24;;;;;;;;;13.50;13.00;;;;;11.95;67.67;99896.78;4999272;28;45467;-60
2021/11/03 10:56:09;;;;;;;;;16.25;11.75;;;;;11.96;67.25;99896.66;5000304;28;45245;-61
2021/11/03 10:58:57;;;;;;;;;16.50;13.00;;;;;12.06;67.08;99895.91;5005212;28;45337;-61
2021/11/03 11:01:22;;;;;;;;;10.00;8.25;;;;;12.16;66.87;99891.56;5006048;28;46239;-61
2021/11/03 11:04:06;;;;;;;;;13.00;10.75;;;;;12.36;66.73;99888.19;5004649;28;45582;-62
2021/11/03 11:07:05;;;;;;;;;14.25;9.50;;;;;12.48;66.45;99889.88;5007135;28;46070;-61
2021/11/03 11:09:49;;;;;;;;;13.50;11.00;;;;;12.62;66.36;99885.25;5000833;28;45441;-62
2021/11/03 11:12:25;;;;;;;;;11.00;11.00;;;;;12.70;65.60;99888.09;5002867;28;45638;-63
2021/11/03 11:14:55;;;;;;;;;8.50;8.00;;;;;12.71;65.20;99884.50;5002432;28;45349;-61
2021/11/03 11:17:30;;;;;;;;;14.25;10.50;;;;;12.72;65.47;99886.19;5002992;28;45276;-61
2021/11/03 11:20:14;;;;;;;;;10.00;9.25;;;;;12.68;64.85;99887.41;5000276;28;45372;-64
2021/11/03 11:22:51;;;;;;;;;6.25;6.25;;;;;12.65;64.29;99885.03;5003428;28;45515;-65
2021/11/03 11:25:26;;;;;;;;;13.50;8.50;;;;;12.70;64.64;99894.22;5005702;28;45455;-62
2021/11/03 11:28:13;;;;;;;;;9.75;8.00;;;;;12.70;64.27;99893.41;5007502;28;45341;-62